.
WxDataArchive / Data Records for 2015-07-29
2015-07-28 July 2015 2015-07-30

Data Records for Wednesday, 29 July 2015

Time	Temp	Chill	HIndex	Humid	Dewpt	 Wind 	HiWind	WindDir	Rain 	Barom
-----	----	-----	------	-----	-----	------	------	-------	-----	-----
00:00	77.7	77.7	79.6	69	66.7	0	1	90	0.00	29.930 
00:05	77.6	77.6	79.5	70	67.0	0	1	90	0.00	29.930 
00:10	77.4	77.4	79.3	70	66.8	0	2	90	0.00	29.930 
00:15	77.2	77.2	79.0	71	67.0	0	1	90	0.00	29.920 
00:20	76.8	76.8	78.5	71	66.7	0	3	90	0.00	29.920 
00:25	76.7	76.7	78.4	72	67.0	0	3	90	0.00	29.920 
00:30	76.5	76.5	78.1	73	67.2	0	1	90	0.00	29.919 
00:35	76.3	76.3	77.8	73	67.0	0	1	90	0.00	29.919 
00:40	76.3	76.3	77.8	73	67.0	0	0	---	0.00	29.919 
00:45	76.1	76.1	77.6	73	66.8	0	0	---	0.00	29.921 
00:50	76.0	76.0	77.4	74	67.1	0	0	---	0.00	29.921 
00:55	75.6	75.6	77.0	74	66.7	0	0	---	0.00	29.921 
01:00	75.4	75.4	76.6	75	66.9	0	0	---	0.00	29.921 
01:05	75.3	75.3	76.5	75	66.8	0	0	---	0.00	29.921 
01:10	75.1	75.1	76.2	76	67.0	0	0	---	0.00	29.921 
01:15	74.9	74.9	74.9	76	66.8	0	0	---	0.00	29.927 
01:20	74.7	74.7	74.7	77	67.0	0	0	---	0.00	29.927 
01:25	74.6	74.6	74.6	77	66.9	0	0	---	0.00	29.927 
01:30	74.4	74.4	74.4	77	66.7	0	0	---	0.00	29.924 
01:35	74.2	74.2	74.2	78	66.9	0	0	---	0.00	29.924 
01:40	74.0	74.0	74.0	79	67.1	0	0	---	0.00	29.924 
01:45	73.9	73.9	73.9	79	67.0	0	0	---	0.00	29.925 
01:50	73.9	73.9	73.9	80	67.3	0	0	---	0.00	29.925 
01:55	73.7	73.7	73.7	80	67.1	0	0	---	0.00	29.925 
02:00	73.5	73.5	73.5	81	67.3	0	0	---	0.00	29.925 
02:05	73.5	73.5	73.5	81	67.3	0	0	---	0.00	29.925 
02:10	73.5	73.5	73.5	82	67.7	0	0	---	0.00	29.925 
02:15	73.5	73.5	73.5	82	67.7	0	0	---	0.00	29.922 
02:20	73.5	73.5	73.5	82	67.7	0	0	---	0.00	29.922 
02:25	73.7	73.7	73.7	83	68.2	0	0	---	0.00	29.922 
02:30	73.7	73.7	73.7	83	68.2	0	0	---	0.00	29.916 
02:35	73.7	73.7	73.7	82	67.9	0	0	---	0.00	29.916 
02:40	73.5	73.5	73.5	82	67.7	0	0	---	0.00	29.916 
02:45	73.5	73.5	73.5	83	68.0	0	0	---	0.00	29.903 
02:50	73.5	73.5	73.5	83	68.0	0	1	90	0.00	29.903 
02:55	73.5	73.5	73.5	82	67.7	0	1	90	0.00	29.903 
03:00	73.5	73.5	73.5	81	67.3	0	1	90	0.00	29.893 
03:05	73.5	73.5	73.5	81	67.3	0	1	90	0.00	29.893 
03:10	73.5	73.5	73.5	81	67.3	0	1	90	0.00	29.893 
03:15	73.3	73.3	73.3	81	67.1	0	1	90	0.00	29.892 
03:20	73.3	73.3	73.3	81	67.1	0	0	---	0.00	29.892 
03:25	73.2	73.2	73.2	81	67.0	0	0	---	0.00	29.892 
03:30	73.0	73.0	73.0	82	67.2	0	0	---	0.00	29.895 
03:35	73.0	73.0	73.0	82	67.2	0	0	---	0.00	29.895 
03:40	72.8	72.8	72.8	83	67.3	0	0	---	0.00	29.895 
03:45	72.7	72.7	72.7	83	67.2	0	0	---	0.00	29.888 
03:50	72.7	72.7	72.7	83	67.2	0	0	---	0.00	29.888 
03:55	72.5	72.5	72.5	84	67.4	0	0	---	0.00	29.888 
04:00	72.3	72.3	72.3	84	67.2	0	0	---	0.00	29.887 
04:05	72.1	72.1	72.1	84	67.0	0	0	---	0.00	29.887 
04:10	72.1	72.1	72.1	84	67.0	0	0	---	0.00	29.887 
04:15	72.0	72.0	72.0	85	67.2	0	0	---	0.00	29.884 
04:20	72.0	72.0	72.0	85	67.2	0	0	---	0.00	29.884 
04:25	71.8	71.8	71.8	85	67.0	0	0	---	0.00	29.884 
04:30	71.8	71.8	71.8	86	67.4	0	0	---	0.00	29.887 
04:35	71.8	71.8	71.8	86	67.4	0	0	---	0.00	29.887 
04:40	71.8	71.8	71.8	86	67.4	0	0	---	0.00	29.887 
04:45	71.8	71.8	71.8	86	67.4	0	0	---	0.00	29.888 
04:50	71.8	71.8	71.8	86	67.4	0	0	---	0.00	29.888 
04:55	71.6	71.6	71.6	86	67.2	0	0	---	0.00	29.888 
05:00	71.6	71.6	71.6	86	67.2	0	0	---	0.00	29.892 
05:05	71.5	71.5	71.5	87	67.4	0	0	---	0.00	29.892 
05:10	71.5	71.5	71.5	87	67.4	0	0	---	0.00	29.892 
05:15	71.3	71.3	71.3	87	67.2	0	0	---	0.00	29.896 
05:20	71.3	71.3	71.3	87	67.2	0	0	---	0.00	29.896 
05:25	71.3	71.3	71.3	87	67.2	0	0	---	0.00	29.896 
05:30	71.1	71.1	71.1	87	67.0	0	0	---	0.00	29.894 
05:35	71.1	71.1	71.1	88	67.4	0	0	---	0.00	29.894 
05:40	71.1	71.1	71.1	88	67.4	0	0	---	0.00	29.894 
05:45	71.1	71.1	71.1	88	67.4	0	0	---	0.00	29.897 
05:50	70.9	70.9	70.9	88	67.2	0	0	---	0.00	29.897 
05:55	70.9	70.9	70.9	88	67.2	0	0	---	0.00	29.897 
06:00	70.9	70.9	70.9	88	67.2	0	0	---	0.00	29.898 
06:05	71.1	71.1	71.1	88	67.4	0	0	---	0.00	29.898 
06:10	71.1	71.1	71.1	89	67.7	0	0	---	0.00	29.898 
06:15	71.1	71.1	71.1	89	67.7	0	0	---	0.00	29.896 
06:20	71.1	71.1	71.1	89	67.7	0	0	---	0.00	29.896 
06:25	71.1	71.1	71.1	89	67.7	0	0	---	0.00	29.896 
06:30	71.1	71.1	71.1	89	67.7	0	0	---	0.00	29.894 
06:35	71.1	71.1	71.1	89	67.7	0	0	---	0.00	29.894 
06:40	71.3	71.3	71.3	89	67.9	0	0	---	0.00	29.894 
06:45	71.3	71.3	71.3	89	67.9	0	0	---	0.00	29.902 
06:50	71.5	71.5	71.5	89	68.1	0	0	---	0.00	29.902 
06:55	71.5	71.5	71.5	89	68.1	0	0	---	0.00	29.902 
07:00	71.6	71.6	71.6	89	68.2	0	0	---	0.00	29.904 
07:05	71.8	71.8	71.8	89	68.4	0	0	---	0.00	29.904 
07:10	72.0	72.0	72.0	89	68.6	0	0	---	0.00	29.904 
07:15	72.1	72.1	72.1	89	68.7	0	0	---	0.00	29.896 
07:20	72.3	72.3	72.3	89	68.9	0	0	---	0.00	29.896 
07:25	72.5	72.5	72.5	89	69.1	0	0	---	0.00	29.896 
07:30	72.7	72.7	72.7	89	69.3	0	0	---	0.00	29.899 
07:35	72.8	72.8	72.8	88	69.0	0	0	---	0.00	29.899 
07:40	73.0	73.0	73.0	88	69.2	0	0	---	0.00	29.899 
07:45	73.0	73.0	73.0	88	69.2	0	0	---	0.00	29.898 
07:50	73.2	73.2	73.2	88	69.4	0	0	---	0.00	29.898 
07:55	73.3	73.3	73.3	88	69.5	0	0	---	0.00	29.898 
08:00	73.5	73.5	73.5	88	69.7	0	0	---	0.00	29.902 
08:05	73.5	73.5	73.5	88	69.7	0	0	---	0.00	29.902 
08:10	73.7	73.7	73.7	88	69.9	0	0	---	0.00	29.902 
08:15	73.9	73.9	73.9	88	70.1	0	0	---	0.00	29.905 
08:20	74.2	74.2	74.2	89	70.7	0	0	---	0.00	29.905 
08:25	74.9	74.9	74.9	89	71.4	0	0	---	0.00	29.905 
08:30	76.0	76.0	76.3	88	72.2	0	0	---	0.00	29.904 
08:35	77.0	77.0	78.4	86	72.5	0	0	---	0.00	29.904 
08:40	77.9	77.9	80.2	84	72.7	0	0	---	0.00	29.904 
08:45	78.5	78.5	81.4	83	72.9	0	1	90	0.00	29.903 
08:50	78.6	78.6	81.5	82	72.6	0	1	90	0.00	29.903 
08:55	79.0	79.0	82.3	82	73.0	0	1	90	0.00	29.903 
09:00	79.4	79.4	83.1	81	73.0	0	1	90	0.00	29.903 
09:05	79.8	79.8	83.9	81	73.4	0	0	---	0.00	29.903 
09:10	79.9	79.9	84.0	80	73.2	0	1	90	0.00	29.903 
09:15	80.1	80.1	84.4	80	73.4	0	1	90	0.00	29.904 
09:20	80.3	80.3	84.7	79	73.2	0	0	---	0.00	29.904 
09:25	80.3	80.3	84.9	80	73.5	0	0	---	0.00	29.904 
09:30	80.5	80.5	85.1	79	73.4	0	1	90	0.00	29.905 
09:35	80.7	80.7	85.6	79	73.6	0	2	90	0.00	29.905 
09:40	81.2	81.2	86.5	78	73.7	0	1	90	0.00	29.905 
09:45	81.6	81.6	87.2	77	73.7	0	1	90	0.00	29.903 
09:50	82.0	82.0	87.8	76	73.7	0	1	90	0.00	29.903 
09:55	82.4	82.4	88.4	75	73.7	0	2	90	0.00	29.903 
10:00	82.6	82.6	88.9	75	73.8	0	1	90	0.00	29.898 
10:05	83.0	83.0	90.1	76	74.6	0	1	90	0.00	29.898 
10:10	83.4	83.4	90.7	75	74.6	0	1	90	0.00	29.898 
10:15	83.8	83.8	91.3	74	74.6	0	1	90	0.00	29.890 
10:20	84.0	84.0	91.5	73	74.4	0	2	90	0.00	29.890 
10:25	84.3	84.3	92.2	73	74.7	0	1	90	0.00	29.890 
10:30	84.9	84.9	93.2	72	74.8	0	1	90	0.00	29.883 
10:35	85.3	85.3	93.4	70	74.4	0	1	90	0.00	29.883 
10:40	85.9	85.9	94.4	69	74.5	0	1	90	0.00	29.883 
10:45	86.5	86.5	95.8	69	75.1	0	4	90	0.00	29.885 
10:50	87.0	87.0	96.1	67	74.7	1	3	90	0.00	29.885 
10:55	87.0	87.0	96.6	68	75.1	0	3	90	0.00	29.885 
11:00	87.0	87.0	96.1	67	74.7	0	2	90	0.00	29.878 
11:05	87.0	87.0	95.7	66	74.2	0	1	90	0.00	29.878 
11:10	87.2	87.2	96.6	67	74.9	0	2	90	0.00	29.878 
11:15	87.6	87.6	97.6	67	75.3	0	1	90	0.00	29.885 
11:20	88.0	88.0	97.6	65	74.7	0	3	90	0.00	29.885 
11:25	88.0	88.0	97.1	64	74.3	0	2	90	0.00	29.885 
11:30	88.0	88.0	97.6	65	74.7	0	1	90	0.00	29.884 
11:35	88.0	88.0	97.6	65	74.7	0	2	90	0.00	29.884 
11:40	87.8	87.8	97.1	65	74.5	0	1	90	0.00	29.884 
11:45	87.8	87.8	97.6	66	75.0	0	1	90	0.00	29.881 
11:50	88.0	88.0	98.1	66	75.2	0	1	90	0.00	29.881 
11:55	88.4	88.4	98.0	64	74.6	0	1	90	0.00	29.881 
12:00	88.8	88.8	99.0	64	75.0	0	1	90	0.00	29.882 
12:05	88.8	88.8	98.5	63	74.5	0	2	90	0.00	29.882 
12:10	88.8	88.8	99.5	65	75.5	0	1	90	0.00	29.882 
12:15	88.8	88.8	99.5	65	75.5	0	1	90	0.00	29.885 
12:20	88.4	88.4	97.5	63	74.2	0	1	90	0.00	29.885 
12:25	88.0	88.0	97.6	65	74.7	0	1	90	0.00	29.885 
12:30	87.4	87.4	95.7	64	73.7	0	1	90	0.00	29.885 
12:35	87.4	87.4	95.7	64	73.7	0	1	90	0.00	29.885 
12:40	87.6	87.6	96.6	65	74.3	0	1	90	0.00	29.885 
12:45	87.8	87.8	97.1	65	74.5	0	1	90	0.00	29.885 
12:50	88.2	88.2	97.5	64	74.4	0	1	90	0.00	29.885 
12:55	88.2	88.2	97.0	63	74.0	0	1	90	0.00	29.885 
13:00	88.0	88.0	96.1	62	73.3	0	1	90	0.00	29.883 
13:05	87.4	87.4	95.7	64	73.7	0	1	90	0.00	29.883 
13:10	87.2	87.2	95.2	64	73.5	0	2	90	0.00	29.883 
13:15	87.2	87.2	96.1	66	74.4	0	2	90	0.00	29.879 
13:20	87.2	87.2	96.1	66	74.4	0	2	90	0.00	29.879 
13:25	87.0	87.0	95.7	66	74.2	1	2	90	0.00	29.879 
13:30	87.0	87.0	96.1	67	74.7	1	3	315	0.00	29.876 
13:35	87.2	87.2	96.6	67	74.9	1	3	315	0.00	29.876 
13:40	87.0	87.0	96.1	67	74.7	0	3	315	0.00	29.876 
13:45	87.2	87.2	96.1	66	74.4	1	4	315	0.00	29.873 
13:50	87.8	87.8	97.1	65	74.5	2	4	292	0.00	29.873 
13:55	87.8	87.8	97.1	65	74.5	1	4	292	0.00	29.873 
14:00	87.8	87.8	96.6	64	74.1	0	2	292	0.00	29.872 
14:05	87.8	87.8	96.6	64	74.1	1	4	292	0.00	29.872 
14:10	87.8	87.8	96.1	63	73.6	1	3	292	0.00	29.872 
14:15	87.8	87.8	95.6	62	73.1	1	4	292	0.00	29.878 
14:20	87.8	87.8	95.6	62	73.1	0	2	292	0.00	29.878 
14:25	87.2	87.2	94.3	62	72.6	1	4	292	0.00	29.878 
14:30	86.1	86.1	92.8	64	72.5	0	1	90	0.00	29.879 
14:35	85.5	85.5	91.9	65	72.4	0	3	90	0.00	29.879 
14:40	85.3	85.3	92.6	68	73.5	0	1	90	0.00	29.879 
14:45	85.3	85.3	93.0	69	73.9	0	2	90	0.00	29.875 
14:50	85.3	85.3	93.0	69	73.9	0	3	90	0.00	29.875 
14:55	85.5	85.5	93.5	69	74.1	0	1	90	0.00	29.875 
15:00	85.7	85.7	94.3	70	74.8	0	1	90	0.00	29.873 
15:05	85.9	85.9	94.0	68	74.1	1	5	292	0.00	29.873 
15:10	85.9	85.9	93.6	67	73.6	1	3	315	0.00	29.873 
15:15	85.9	85.9	94.0	68	74.1	2	5	270	0.00	29.875 
15:20	85.9	85.9	93.6	67	73.6	2	6	270	0.00	29.875 
15:25	86.1	86.1	94.9	69	74.7	2	4	270	0.00	29.875 
15:30	86.3	86.3	94.5	67	74.0	2	5	315	0.00	29.863 
15:35	86.3	86.3	94.1	66	73.6	2	6	292	0.00	29.863 
15:40	86.3	86.3	94.1	66	73.6	2	5	315	0.00	29.863 
15:45	86.7	86.7	95.4	67	74.4	1	4	292	0.00	29.859 
15:50	87.2	87.2	95.7	65	74.0	2	4	292	0.00	29.859 
15:55	87.4	87.4	96.1	65	74.2	3	6	292	0.00	29.859 
16:00	87.6	87.6	96.1	64	73.9	3	6	270	0.00	29.852 
16:05	87.8	87.8	95.6	62	73.1	3	6	270	0.00	29.852 
16:10	88.0	88.0	96.1	62	73.3	1	4	270	0.00	29.852 
16:15	87.8	87.8	95.6	62	73.1	3	5	270	0.00	29.856 
16:20	87.4	87.4	95.7	64	73.7	3	6	270	0.00	29.856 
16:25	87.8	87.8	96.6	64	74.1	2	5	270	0.00	29.856 
16:30	88.4	88.4	97.0	62	73.7	2	5	292	0.00	29.848 
16:35	88.8	88.8	97.9	62	74.1	1	4	292	0.00	29.848 
16:40	88.6	88.6	96.5	60	72.9	2	4	292	0.00	29.848 
16:45	88.0	88.0	96.1	62	73.3	2	5	292	0.00	29.851 
16:50	87.4	87.4	94.8	62	72.7	2	4	270	0.00	29.851 
16:55	87.2	87.2	95.2	64	73.5	1	4	270	0.00	29.851 
17:00	87.4	87.4	95.2	63	73.2	1	5	270	0.00	29.856 
17:05	87.0	87.0	94.8	64	73.3	2	3	315	0.00	29.856 
17:10	86.3	86.3	93.6	65	73.1	3	10	338	0.00	29.856 
17:15	85.7	85.7	93.1	67	73.4	2	5	270	0.00	29.860 
17:20	85.5	85.5	93.1	68	73.7	2	5	292	0.00	29.860 
17:25	85.3	85.3	92.6	68	73.5	2	6	338	0.00	29.860 
17:30	84.9	84.9	92.1	69	73.6	2	6	270	0.00	29.860 
17:35	84.7	84.7	91.7	69	73.4	2	5	338	0.00	29.860 
17:40	84.7	84.7	92.0	70	73.8	1	4	315	0.00	29.860 
17:45	84.9	84.9	92.5	70	74.0	0	2	315	0.00	29.864 
17:50	85.3	85.3	92.6	68	73.5	1	3	315	0.00	29.864 
17:55	85.9	85.9	94.0	68	74.1	1	4	338	0.00	29.864 
18:00	86.3	86.3	94.5	67	74.0	1	3	338	0.00	29.865 
18:05	86.3	86.3	94.1	66	73.6	2	4	292	0.00	29.865 
18:10	86.1	86.1	94.0	67	73.8	1	3	292	0.00	29.865 
18:15	86.1	86.1	92.8	64	72.5	1	4	292	0.00	29.858 
18:20	86.5	86.5	93.3	63	72.4	1	3	315	0.00	29.858 
18:25	86.7	86.7	92.9	61	71.6	3	6	270	0.00	29.858 
18:30	87.0	87.0	93.5	61	71.9	2	5	270	0.00	29.853 
18:35	86.7	86.7	92.9	61	71.6	2	5	292	0.00	29.853 
18:40	86.3	86.3	92.1	61	71.2	2	5	338	0.00	29.853 
18:45	86.3	86.3	91.7	60	70.7	2	5	315	0.00	29.852 
18:50	86.1	86.1	91.3	60	70.6	3	6	315	0.00	29.852 
18:55	85.9	85.9	90.9	60	70.4	3	7	315	0.00	29.852 
19:00	85.7	85.7	90.5	60	70.2	3	5	315	0.00	29.857 
19:05	85.3	85.3	90.5	62	70.8	2	5	292	0.00	29.857 
19:10	85.1	85.1	90.1	62	70.6	2	5	292	0.00	29.857 
19:15	85.1	85.1	90.1	62	70.6	2	6	270	0.00	29.862 
19:20	84.9	84.9	89.4	61	69.9	4	7	292	0.00	29.862 
19:25	84.7	84.7	89.0	61	69.7	3	9	292	0.00	29.862 
19:30	84.5	84.5	88.7	61	69.5	3	5	315	0.00	29.867 
19:35	84.3	84.3	88.3	61	69.4	2	5	315	0.00	29.867 
19:40	84.3	84.3	87.8	59	68.4	3	5	315	0.00	29.867 
19:45	84.1	84.1	87.4	59	68.2	2	4	292	0.00	29.876 
19:50	83.8	83.8	86.9	59	67.9	2	5	315	0.00	29.876 
19:55	83.8	83.8	87.5	61	68.9	1	4	292	0.00	29.876 
20:00	83.2	83.2	86.5	61	68.3	1	4	292	0.00	29.880 
20:05	82.8	82.8	85.6	60	67.5	1	4	292	0.00	29.880 
20:10	82.4	82.4	84.6	58	66.1	2	4	315	0.00	29.880 
20:15	82.2	82.2	84.2	57	65.4	1	3	315	0.00	29.877 
20:20	82.0	82.0	83.7	56	64.7	1	3	315	0.00	29.877 
20:25	81.6	81.6	82.9	54	63.3	1	3	315	0.00	29.877 
20:30	81.4	81.4	82.3	51	61.5	1	3	315	0.00	29.880 
20:35	81.1	81.1	81.8	50	60.7	1	3	292	0.00	29.880 
20:40	80.9	80.9	81.6	50	60.5	1	3	315	0.00	29.880 
20:45	80.5	80.5	81.3	50	60.1	0	2	315	0.00	29.890 
20:50	80.1	80.1	81.0	51	60.3	0	2	315	0.00	29.890 
20:55	79.9	79.9	80.7	50	59.6	0	2	315	0.00	29.890 
21:00	79.6	79.6	80.5	50	59.3	1	4	315	0.00	29.896 
21:05	79.4	79.4	80.3	50	59.1	0	2	315	0.00	29.896 
21:10	79.2	79.2	80.1	50	58.9	0	1	315	0.00	29.896 
21:15	78.8	78.8	79.8	50	58.6	0	1	315	0.00	29.895 
21:20	78.6	78.6	79.7	51	58.9	0	1	315	0.00	29.895 
21:25	78.3	78.3	79.5	51	58.7	0	1	315	0.00	29.895 
21:30	77.9	77.9	79.3	52	58.8	0	0	---	0.00	29.902 
21:35	77.6	77.6	79.1	53	59.1	0	0	---	0.00	29.902 
21:40	77.2	77.2	78.8	54	59.2	0	0	---	0.00	29.902 
21:45	76.7	76.7	78.5	55	59.3	0	0	---	0.00	29.906 
21:50	76.3	76.3	78.3	57	59.9	0	0	---	0.00	29.906 
21:55	75.8	75.8	77.9	57	59.5	0	0	---	0.00	29.906 
22:00	75.6	75.6	77.8	58	59.8	0	0	---	0.00	29.911 
22:05	75.3	75.3	77.6	58	59.5	0	0	---	0.00	29.911 
22:10	74.9	74.9	74.9	59	59.6	0	0	---	0.00	29.911 
22:15	74.7	74.7	74.7	58	58.9	0	1	315	0.00	29.919 
22:20	74.9	74.9	74.9	58	59.1	0	0	---	0.00	29.919 
22:25	74.9	74.9	74.9	58	59.1	0	0	---	0.00	29.919 
22:30	74.9	74.9	74.9	59	59.6	0	0	---	0.00	29.923 
22:35	74.6	74.6	74.6	59	59.3	0	0	---	0.00	29.923 
22:40	74.2	74.2	74.2	60	59.4	0	0	---	0.00	29.923 
22:45	73.9	73.9	73.9	61	59.6	0	0	---	0.00	29.929 
22:50	73.5	73.5	73.5	62	59.7	0	0	---	0.00	29.929 
22:55	73.0	73.0	73.0	63	59.6	0	0	---	0.00	29.929 
23:00	72.5	72.5	72.5	64	59.6	0	0	---	0.00	29.929 
23:05	72.0	72.0	72.0	66	60.0	0	0	---	0.00	29.929 
23:10	71.6	71.6	71.6	66	59.6	0	0	---	0.00	29.929 
23:15	71.3	71.3	71.3	67	59.8	0	0	---	0.00	29.930 
23:20	70.9	70.9	70.9	68	59.8	0	0	---	0.00	29.930 
23:25	70.8	70.8	70.8	68	59.7	0	0	---	0.00	29.930 
23:30	70.4	70.4	70.4	69	59.7	0	0	---	0.00	29.932 
23:35	70.3	70.3	70.3	70	60.0	0	0	---	0.00	29.932 
23:40	69.9	69.9	69.9	72	60.4	0	0	---	0.00	29.932 
23:45	69.6	69.6	69.6	72	60.2	0	0	---	0.00	29.934 
23:50	69.3	69.3	69.3	73	60.3	0	0	---	0.00	29.934 
23:55	69.1	69.1	69.1	74	60.5	0	0	---	0.00	29.934 

CoCoRaHS
IN-AL-39
A2 Web Hosting
Creative Commons License
GoDaddy
search engine by freefind advanced

loaded 2018-11-15 18:56:57 • last modified 2010-11-18 10:43:29
Privacy PolicyDisclaimer
• wx.awcolley.com is powered by PmWiki v.2002016 •
• all content (unless otherwise noted) © 2018 A W Colley